Time;durP1;ratioP1;P1;durP2;ratioP2;P2;SDS_P1;SDS_P2;PMS_P1;PMS_P2;Temp;Humidity;BMP_temperature;BMP_pressure;BME280_temperature;BME280_humidity;BME280_pressure;Samples;Min_cycle;Max_cycle;Signal;HPM_P1;HPM_P2
2021/04/06 00:00:46;;;;;;;6.95;2.15;;;0.10;87.70;;;;;;2105982;28;20024;-69
2021/04/06 00:01:48;;;;;;;5.65;2.58;;;0.10;88.00;;;;;;2106079;28;20042;-68
2021/04/06 00:02:52;;;;;;;6.22;2.13;;;0.00;87.80;;;;;;2105768;28;20032;-68
2021/04/06 00:03:55;;;;;;;5.32;2.20;;;0.00;88.10;;;;;;2105843;28;20065;-68
2021/04/06 00:04:58;;;;;;;8.40;2.78;;;0.00;88.80;;;;;;2106066;28;20472;-68
2021/04/06 00:06:02;;;;;;;6.35;2.30;;;0.00;88.60;;;;;;2106526;28;20024;-67
2021/04/06 00:07:06;;;;;;;5.93;2.20;;;0.00;88.60;;;;;;2105877;28;20062;-68
2021/04/06 00:08:08;;;;;;;4.93;2.40;;;0.00;88.60;;;;;;2097869;28;20017;-69
2021/04/06 00:09:15;;;;;;;6.47;2.40;;;0.00;89.20;;;;;;2106033;28;20012;-69
2021/04/06 00:10:29;;;;;;;5.20;2.45;;;0.00;89.00;;;;;;2106807;28;20119;-69
2021/04/06 00:11:30;;;;;;;5.43;2.10;;;0.00;89.30;;;;;;2106756;28;20012;-70
2021/04/06 00:12:32;;;;;;;7.88;2.20;;;0.00;88.80;;;;;;2105904;28;20527;-70
2021/04/06 00:13:35;;;;;;;6.47;2.50;;;0.00;88.80;;;;;;2105712;28;20170;-69
2021/04/06 00:14:38;;;;;;;5.63;2.25;;;0.00;89.20;;;;;;2097475;28;20036;-69
2021/04/06 00:15:44;;;;;;;7.38;2.10;;;0.10;88.80;;;;;;2097939;28;20037;-69
2021/04/06 00:16:45;;;;;;;5.95;2.10;;;0.10;88.40;;;;;;2106594;28;20475;-69
2021/04/06 00:17:48;;;;;;;4.63;2.00;;;0.10;88.40;;;;;;2106673;28;20480;-69
2021/04/06 00:18:52;;;;;;;4.32;2.08;;;0.10;87.70;;;;;;2106580;28;20036;-69
2021/04/06 00:19:55;;;;;;;7.13;2.42;;;0.10;87.90;;;;;;2106532;28;20032;-69
2021/04/06 00:20:59;;;;;;;7.30;2.47;;;0.20;88.20;;;;;;2106419;28;20039;-69
2021/04/06 00:22:02;;;;;;;7.85;2.30;;;0.20;88.10;;;;;;2106438;28;20016;-69
2021/04/06 00:23:05;;;;;;;7.18;2.08;;;0.20;87.60;;;;;;2106257;28;20043;-69
2021/04/06 00:24:07;;;;;;;5.50;2.28;;;0.20;87.50;;;;;;2106200;28;20039;-69
2021/04/06 00:25:12;;;;;;;4.97;2.40;;;0.30;87.20;;;;;;2106360;28;20543;-68
2021/04/06 00:26:14;;;;;;;5.90;2.15;;;0.30;87.60;;;;;;2106448;28;20688;-69
2021/04/06 00:27:29;;;;;;;9.48;2.38;;;0.30;88.10;;;;;;2106647;28;20024;-69
2021/04/06 00:28:33;;;;;;;10.98;2.78;;;0.30;86.90;;;;;;2106869;28;20024;-69
2021/04/06 00:29:36;;;;;;;4.53;2.10;;;0.40;87.30;;;;;;2106705;28;20020;-70
2021/04/06 00:30:38;;;;;;;4.65;2.10;;;0.40;86.80;;;;;;2106450;28;20031;-69
2021/04/06 00:31:43;;;;;;;7.65;2.22;;;0.40;86.60;;;;;;2106456;28;20383;-69
2021/04/06 00:32:44;;;;;;;4.60;2.03;;;0.40;86.50;;;;;;2106471;28;20028;-69
2021/04/06 00:33:49;;;;;;;7.35;2.30;;;0.40;86.70;;;;;;2106215;28;20040;-70
2021/04/06 00:34:57;;;;;;;10.07;2.70;;;0.40;86.30;;;;;;2097503;28;20520;-70
2021/04/06 00:36:00;;;;;;;6.65;2.40;;;0.40;86.40;;;;;;2098580;28;20041;-69
2021/04/06 00:37:16;;;;;;;6.10;2.10;;;0.40;86.50;;;;;;2106393;28;20028;-69
2021/04/06 00:38:17;;;;;;;5.28;2.10;;;0.40;85.90;;;;;;2106551;28;20020;-69
2021/04/06 00:39:35;;;;;;;7.18;2.63;;;0.40;85.30;;;;;;2106448;28;20042;-70
2021/04/06 00:40:42;;;;;;;5.78;2.42;;;0.40;86.20;;;;;;2105717;28;20032;-69
2021/04/06 00:41:43;;;;;;;6.28;2.65;;;0.30;85.80;;;;;;2105790;28;20046;-69
2021/04/06 00:42:45;;;;;;;6.80;2.20;;;0.30;85.90;;;;;;2106195;28;20103;-69
2021/04/06 00:43:46;;;;;;;5.40;2.38;;;0.30;86.10;;;;;;2106124;28;20110;-69
2021/04/06 00:44:51;;;;;;;7.28;2.53;;;0.20;86.00;;;;;;2106283;28;20035;-69
2021/04/06 00:45:52;;;;;;;5.22;1.90;;;0.20;85.90;;;;;;2105715;28;20415;-69
2021/04/06 00:46:53;;;;;;;5.75;2.17;;;0.20;86.10;;;;;;2105642;28;20043;-69
2021/04/06 00:48:09;;;;;;;4.35;2.03;;;0.10;86.20;;;;;;2105576;28;20028;-69
2021/04/06 00:49:13;;;;;;;8.18;2.53;;;0.10;86.70;;;;;;2105966;28;20056;-69
2021/04/06 00:50:15;;;;;;;6.53;2.38;;;0.00;87.50;;;;;;2105585;28;20529;-69
2021/04/06 00:51:21;;;;;;;5.93;2.30;;;0.00;87.90;;;;;;2098180;28;20587;-69
2021/04/06 00:52:25;;;;;;;6.03;2.25;;;0.00;87.60;;;;;;2105748;28;20047;-70
2021/04/06 00:54:00;;;;;;;6.20;2.50;;;-0.10;87.70;;;;;;2106026;28;20038;-70
2021/04/06 00:55:01;;;;;;;4.97;2.10;;;-0.10;88.00;;;;;;2106317;28;20028;-70
2021/04/06 00:56:13;;;;;;;5.40;2.20;;;-0.10;87.40;;;;;;2106462;28;20016;-69
2021/04/06 00:57:13;;;;;;;5.35;2.33;;;-0.10;87.40;;;;;;2106256;28;20090;-69
2021/04/06 00:58:14;;;;;;;5.53;2.00;;;-0.10;87.60;;;;;;2106184;28;20085;-70
2021/04/06 00:59:23;;;;;;;5.43;2.38;;;-0.10;87.70;;;;;;2106322;28;20028;-69
2021/04/06 01:00:29;;;;;;;7.95;2.33;;;-0.10;87.80;;;;;;2106206;28;20073;-70
2021/04/06 01:01:46;;;;;;;4.72;2.20;;;-0.10;88.40;;;;;;2106220;28;20118;-69
2021/04/06 01:03:04;;;;;;;8.10;2.70;;;-0.20;88.80;;;;;;2106038;28;20020;-70
2021/04/06 01:04:07;;;;;;;6.13;2.28;;;-0.20;89.40;;;;;;2105869;28;20113;-69
2021/04/06 01:05:08;;;;;;;5.03;2.08;;;-0.20;89.10;;;;;;2105033;28;20028;-70
2021/04/06 01:06:09;;;;;;;6.57;2.42;;;-0.20;89.30;;;;;;2106152;28;20028;-69
2021/04/06 01:07:11;;;;;;;7.35;2.53;;;-0.20;89.40;;;;;;2106180;28;20032;-69
2021/04/06 01:08:12;;;;;;;7.40;2.40;;;-0.20;88.60;;;;;;2106161;28;20032;-69
2021/04/06 01:09:12;;;;;;;5.88;2.30;;;-0.20;88.20;;;;;;2106331;28;20020;-69
2021/04/06 01:10:13;;;;;;;5.15;2.45;;;-0.20;87.80;;;;;;2106290;28;20436;-69
2021/04/06 01:11:14;;;;;;;6.03;2.42;;;-0.20;87.90;;;;;;2106194;28;20104;-70
2021/04/06 01:12:17;;;;;;;7.05;2.55;;;-0.20;87.60;;;;;;2106050;28;20414;-70
2021/04/06 01:13:19;;;;;;;6.40;2.22;;;-0.20;88.20;;;;;;2105652;28;20119;-69
2021/04/06 01:14:20;;;;;;;9.13;2.85;;;-0.20;88.80;;;;;;2106254;28;20064;-70
2021/04/06 01:15:23;;;;;;;7.45;2.35;;;-0.20;88.20;;;;;;2105580;28;20036;-71
2021/04/06 01:16:23;;;;;;;6.97;2.30;;;-0.30;88.50;;;;;;2105614;28;20032;-70
2021/04/06 01:17:30;;;;;;;9.90;2.45;;;-0.20;88.30;;;;;;2106076;28;20032;-70
2021/04/06 01:18:31;;;;;;;6.13;2.33;;;-0.30;88.80;;;;;;2106206;28;20078;-69
2021/04/06 01:19:32;;;;;;;5.47;2.38;;;-0.30;88.80;;;;;;2106325;28;20028;-70
2021/04/06 01:20:33;;;;;;;6.15;2.25;;;-0.30;88.10;;;;;;2106189;28;20032;-70
2021/04/06 01:21:34;;;;;;;7.15;2.30;;;-0.30;88.80;;;;;;2106209;28;20043;-70
2021/04/06 01:22:36;;;;;;;5.38;2.10;;;-0.30;88.70;;;;;;2106085;28;20028;-70
2021/04/06 01:23:38;;;;;;;5.38;1.98;;;-0.30;89.30;;;;;;2105864;28;20046;-69
2021/04/06 01:24:39;;;;;;;6.90;2.30;;;-0.30;89.30;;;;;;2106257;28;20062;-70
2021/04/06 01:25:45;;;;;;;6.03;2.15;;;-0.30;89.00;;;;;;2106206;28;20027;-69
2021/04/06 01:26:48;;;;;;;5.90;2.40;;;-0.30;89.60;;;;;;2106118;28;20067;-70
2021/04/06 01:27:49;;;;;;;6.55;2.15;;;-0.40;90.00;;;;;;2105384;28;20028;-70
2021/04/06 01:28:51;;;;;;;6.35;2.45;;;-0.40;90.00;;;;;;2097020;28;20543;-70
2021/04/06 01:29:54;;;;;;;6.85;2.45;;;-0.40;90.30;;;;;;2105474;28;20024;-70
2021/04/06 01:30:56;;;;;;;5.78;2.33;;;-0.40;90.30;;;;;;2106039;28;20024;-70
2021/04/06 01:31:59;;;;;;;7.28;2.40;;;-0.40;90.20;;;;;;2105487;28;20051;-70
2021/04/06 01:33:00;;;;;;;7.22;2.28;;;-0.40;89.80;;;;;;2097181;28;20047;-70
2021/04/06 01:34:03;;;;;;;4.75;2.20;;;-0.40;89.40;;;;;;2096719;28;20036;-70
2021/04/06 01:35:07;;;;;;;5.18;2.10;;;-0.40;89.70;;;;;;2105469;28;20553;-69
2021/04/06 01:36:08;;;;;;;7.95;2.35;;;-0.40;90.00;;;;;;2106001;28;20050;-70
2021/04/06 01:37:09;;;;;;;3.28;2.00;;;-0.40;90.10;;;;;;2106040;28;20116;-70
2021/04/06 01:38:10;;;;;;;7.05;2.25;;;-0.40;90.00;;;;;;2105843;28;20027;-71
2021/04/06 01:39:14;;;;;;;4.32;2.00;;;-0.40;89.00;;;;;;2105868;28;20514;-70
2021/04/06 01:40:16;;;;;;;7.60;2.22;;;-0.40;89.40;;;;;;2105831;28;20032;-70
2021/04/06 01:41:18;;;;;;;7.88;2.20;;;-0.40;89.20;;;;;;2105302;28;20047;-70
2021/04/06 01:42:21;;;;;;;4.82;2.25;;;-0.40;89.60;;;;;;2105187;28;20024;-70
2021/04/06 01:43:25;;;;;;;8.02;2.25;;;-0.40;89.70;;;;;;2105466;28;20036;-70
2021/04/06 01:44:26;;;;;;;6.82;2.50;;;-0.40;90.10;;;;;;2105826;28;20028;-70
2021/04/06 01:45:27;;;;;;;8.10;2.42;;;-0.40;89.80;;;;;;2105181;28;20016;-69
2021/04/06 01:46:37;;;;;;;9.38;2.50;;;-0.50;89.90;;;;;;2097012;28;20124;-69
2021/04/06 01:47:39;;;;;;;6.03;2.30;;;-0.40;89.80;;;;;;2105489;28;20028;-70
2021/04/06 01:48:40;;;;;;;7.43;2.30;;;-0.40;90.00;;;;;;2105987;28;20359;-70
2021/04/06 01:49:42;;;;;;;5.05;2.20;;;-0.40;90.10;;;;;;2105055;28;20028;-70
2021/04/06 01:50:52;;;;;;;8.45;2.45;;;-0.50;90.10;;;;;;2105226;28;20499;-69
2021/04/06 01:51:57;;;;;;;5.93;2.15;;;-0.50;89.30;;;;;;2105923;28;20491;-69
2021/04/06 01:52:58;;;;;;;6.68;2.08;;;-0.50;89.20;;;;;;2105664;28;20127;-69
2021/04/06 01:54:02;;;;;;;4.38;2.40;;;-0.50;89.10;;;;;;2105370;28;20039;-70
2021/04/06 01:55:11;;;;;;;6.60;2.25;;;-0.50;89.30;;;;;;2105919;28;20024;-70
2021/04/06 01:56:14;;;;;;;5.75;2.30;;;-0.50;89.50;;;;;;2105869;28;20410;-69
2021/04/06 01:57:18;;;;;;;8.10;2.33;;;-0.50;89.70;;;;;;2105837;28;20149;-69
2021/04/06 01:58:22;;;;;;;9.65;2.40;;;-0.40;89.00;;;;;;2105843;28;20127;-70
2021/04/06 01:59:32;;;;;;;7.07;2.35;;;-0.40;89.00;;;;;;2106204;28;20102;-69
2021/04/06 02:01:47;;;;;;;5.82;2.22;;;-0.40;89.30;;;;;;2106071;28;20438;-69
2021/04/06 02:02:48;;;;;;;6.10;2.13;;;-0.40;89.10;;;;;;2105693;28;20050;-69
2021/04/06 02:03:55;;;;;;;9.00;2.20;;;-0.40;89.00;;;;;;2096371;28;20450;-70
2021/04/06 02:04:58;;;;;;;5.90;2.25;;;-0.40;88.60;;;;;;2097771;28;20041;-69
2021/04/06 02:05:59;;;;;;;6.30;2.38;;;-0.40;88.70;;;;;;2105647;28;20027;-70
2021/04/06 02:07:01;;;;;;;8.77;2.47;;;-0.40;89.20;;;;;;2105597;28;20380;-70
2021/04/06 02:08:09;;;;;;;6.97;2.35;;;-0.40;89.80;;;;;;2105612;28;20016;-69
2021/04/06 02:09:09;;;;;;;7.93;2.20;;;-0.40;89.30;;;;;;2105747;28;20111;-69
2021/04/06 02:10:11;;;;;;;5.45;2.15;;;-0.40;88.40;;;;;;2105705;28;20057;-70
2021/04/06 02:11:15;;;;;;;4.82;2.10;;;-0.40;88.20;;;;;;2105646;28;20028;-69
2021/04/06 02:12:21;;;;;;;8.45;2.40;;;-0.50;88.30;;;;;;2105697;28;20028;-69
2021/04/06 02:13:22;;;;;;;6.57;2.40;;;-0.50;88.60;;;;;;2105343;28;20066;-69
2021/04/06 02:14:24;;;;;;;6.70;2.33;;;-0.40;87.70;;;;;;2104920;28;20419;-69
2021/04/06 02:15:24;;;;;;;5.20;2.05;;;-0.40;87.80;;;;;;2105069;28;20028;-69
2021/04/06 02:16:25;;;;;;;6.57;2.47;;;-0.40;88.50;;;;;;2104685;28;20522;-70
2021/04/06 02:17:25;;;;;;;5.25;2.28;;;-0.40;88.50;;;;;;2104998;28;20040;-69
2021/04/06 02:18:30;;;;;;;6.05;2.22;;;-0.50;88.70;;;;;;2105756;28;20096;-69
2021/04/06 02:19:35;;;;;;;5.28;2.20;;;-0.40;88.70;;;;;;2105762;28;20039;-70
2021/04/06 02:20:35;;;;;;;6.60;2.35;;;-0.50;88.60;;;;;;2105708;28;20530;-69
2021/04/06 02:21:49;;;;;;;7.38;2.35;;;-0.50;89.00;;;;;;2105864;28;20053;-71
2021/04/06 02:22:54;;;;;;;5.63;2.35;;;-0.50;88.70;;;;;;2106042;28;20086;-70
2021/04/06 02:23:54;;;;;;;8.13;2.38;;;-0.50;88.80;;;;;;2105965;28;20165;-70
2021/04/06 02:24:55;;;;;;;10.48;2.50;;;-0.50;88.90;;;;;;2105309;28;20016;-70
2021/04/06 02:25:56;;;;;;;6.57;2.30;;;-0.50;89.10;;;;;;2105122;28;20725;-70
2021/04/06 02:27:05;;;;;;;5.78;2.35;;;-0.50;89.20;;;;;;2105927;28;20518;-70
2021/04/06 02:28:06;;;;;;;8.32;2.47;;;-0.50;89.10;;;;;;2108779;28;20024;-69
2021/04/06 02:29:06;;;;;;;7.85;2.50;;;-0.50;89.30;;;;;;2109649;28;20402;-70
2021/04/06 02:30:11;;;;;;;9.30;2.40;;;-0.50;89.30;;;;;;2109067;28;20075;-70
2021/04/06 02:31:12;;;;;;;8.43;2.60;;;-0.60;89.60;;;;;;2108646;28;20024;-69
2021/04/06 02:32:30;;;;;;;11.05;2.65;;;-0.60;89.50;;;;;;2108599;28;20034;-70
2021/04/06 02:33:32;;;;;;;7.47;2.30;;;-0.60;89.30;;;;;;2108294;28;20067;-70
2021/04/06 02:34:34;;;;;;;6.57;2.20;;;-0.60;89.40;;;;;;2106615;28;20399;-70
2021/04/06 02:35:35;;;;;;;8.02;2.40;;;-0.50;89.50;;;;;;2104910;28;20109;-69
2021/04/06 02:36:35;;;;;;;9.13;2.47;;;-0.50;89.50;;;;;;2105626;28;20105;-70
2021/04/06 02:37:40;;;;;;;6.55;2.33;;;-0.60;89.70;;;;;;2105689;28;20425;-70
2021/04/06 02:38:43;;;;;;;9.65;2.33;;;-0.60;89.70;;;;;;2105547;28;20586;-69
2021/04/06 02:39:45;;;;;;;8.30;2.28;;;-0.60;89.60;;;;;;2104827;28;20520;-69
2021/04/06 02:40:45;;;;;;;6.57;2.35;;;-0.60;89.40;;;;;;2105119;28;20024;-69
2021/04/06 02:41:46;;;;;;;9.38;2.20;;;-0.60;89.40;;;;;;2105782;28;20502;-68
2021/04/06 02:42:48;;;;;;;9.57;2.50;;;-0.60;89.60;;;;;;2105620;28;20044;-68
2021/04/06 02:43:51;;;;;;;7.25;2.30;;;-0.60;89.40;;;;;;2105297;28;20024;-69
2021/04/06 02:44:56;;;;;;;5.90;2.30;;;-0.60;89.50;;;;;;2105616;28;20028;-69
2021/04/06 02:45:57;;;;;;;5.63;2.13;;;-0.60;89.80;;;;;;2105664;28;20028;-68
2021/04/06 02:46:57;;;;;;;9.23;2.30;;;-0.60;89.80;;;;;;2105023;28;20224;-68
2021/04/06 02:48:10;;;;;;;6.55;2.40;;;-0.60;89.90;;;;;;2105043;28;20514;-69
2021/04/06 02:49:10;;;;;;;8.00;2.20;;;-0.60;89.70;;;;;;2105710;28;20027;-69
2021/04/06 02:50:14;;;;;;;4.30;2.17;;;-0.60;89.80;;;;;;2104891;28;20111;-68
2021/04/06 02:51:16;;;;;;;5.88;2.30;;;-0.60;89.60;;;;;;2096942;28;20021;-68
2021/04/06 02:52:17;;;;;;;9.50;2.50;;;-0.60;89.70;;;;;;2104908;28;20130;-69
2021/04/06 02:53:18;;;;;;;8.07;2.38;;;-0.60;90.00;;;;;;2105027;28;20085;-68
2021/04/06 02:54:19;;;;;;;6.70;2.40;;;-0.60;89.60;;;;;;2105360;28;20020;-69
2021/04/06 02:55:22;;;;;;;7.18;2.40;;;-0.60;89.60;;;;;;2105531;28;20020;-68
2021/04/06 02:56:29;;;;;;;7.40;2.28;;;-0.60;89.70;;;;;;2105542;28;20122;-69
2021/04/06 02:57:30;;;;;;;7.57;2.60;;;-0.60;89.80;;;;;;2104900;28;20383;-68
2021/04/06 02:58:38;;;;;;;8.35;2.40;;;-0.60;89.90;;;;;;2104914;28;20064;-68
2021/04/06 02:59:39;;;;;;;9.52;2.40;;;-0.60;90.00;;;;;;2105318;28;20036;-69
2021/04/06 03:00:40;;;;;;;4.85;2.30;;;-0.60;90.00;;;;;;2105370;28;20060;-69
2021/04/06 03:01:41;;;;;;;4.90;2.08;;;-0.70;90.00;;;;;;2105550;28;20026;-69
2021/04/06 03:02:42;;;;;;;8.10;2.55;;;-0.70;89.80;;;;;;2105276;28;20063;-68
2021/04/06 03:03:43;;;;;;;6.15;2.30;;;-0.60;89.80;;;;;;2105148;28;20028;-69
2021/04/06 03:04:46;;;;;;;8.35;2.25;;;-0.60;89.50;;;;;;2105510;28;20081;-69
2021/04/06 03:05:47;;;;;;;11.95;2.60;;;-0.70;89.30;;;;;;2105407;28;20482;-70
2021/04/06 03:06:55;;;;;;;6.50;2.20;;;-0.70;89.30;;;;;;2105395;28;20020;-69
2021/04/06 03:07:57;;;;;;;5.28;2.30;;;-0.70;89.80;;;;;;2104621;28;20028;-68
2021/04/06 03:08:58;;;;;;;7.50;2.50;;;-0.70;90.00;;;;;;2104845;28;20024;-69
2021/04/06 03:09:59;;;;;;;7.82;2.50;;;-0.70;90.10;;;;;;2104785;28;20028;-69
2021/04/06 03:11:01;;;;;;;6.85;2.40;;;-0.70;90.00;;;;;;2104826;28;20080;-68
2021/04/06 03:12:02;;;;;;;6.90;2.70;;;-0.70;90.40;;;;;;2104884;28;20020;-68
2021/04/06 03:13:13;;;;;;;9.85;2.70;;;-0.70;90.00;;;;;;2104564;28;20479;-70
2021/04/06 03:14:14;;;;;;;9.30;2.35;;;-0.70;89.60;;;;;;2104954;28;20024;-68
2021/04/06 03:15:25;;;;;;;6.88;2.42;;;-0.70;89.10;;;;;;2105394;28;20380;-68
2021/04/06 03:16:25;;;;;;;9.13;2.83;;;-0.60;88.60;;;;;;2105665;28;20053;-69
2021/04/06 03:17:26;;;;;;;7.15;2.50;;;-0.60;88.50;;;;;;2105531;28;20529;-68
2021/04/06 03:18:37;;;;;;;10.05;2.67;;;-0.60;88.50;;;;;;2105643;28;20028;-68
2021/04/06 03:19:38;;;;;;;5.30;2.35;;;-0.60;88.90;;;;;;2105673;28;20024;-68
2021/04/06 03:20:41;;;;;;;7.55;2.42;;;-0.70;88.90;;;;;;2105647;28;20038;-70
2021/04/06 03:21:41;;;;;;;5.80;2.72;;;-0.60;88.70;;;;;;2105585;28;20483;-69
2021/04/06 03:22:43;;;;;;;11.40;3.03;;;-0.60;89.00;;;;;;2105420;28;20028;-68
2021/04/06 03:23:47;;;;;;;7.45;2.90;;;-0.60;88.80;;;;;;2105222;28;20020;-69
2021/04/06 03:24:48;;;;;;;9.27;2.95;;;-0.60;88.30;;;;;;2105416;28;20572;-67
2021/04/06 03:25:49;;;;;;;7.22;2.65;;;-0.60;88.20;;;;;;2105542;28;20181;-69
2021/04/06 03:26:50;;;;;;;8.27;2.67;;;-0.60;87.90;;;;;;2105581;28;20024;-68
2021/04/06 03:27:52;;;;;;;8.40;2.65;;;-0.60;88.40;;;;;;2105553;28;20034;-69
2021/04/06 03:28:56;;;;;;;7.35;2.58;;;-0.60;88.50;;;;;;2106917;28;20058;-68
2021/04/06 03:29:57;;;;;;;6.32;2.50;;;-0.60;88.20;;;;;;2107149;28;20111;-68
2021/04/06 03:31:12;;;;;;;6.00;2.50;;;-0.60;88.20;;;;;;2107175;28;20032;-69
2021/04/06 03:32:13;;;;;;;8.07;2.75;;;-0.50;87.90;;;;;;2107196;28;20031;-69
2021/04/06 03:33:14;;;;;;;7.60;2.80;;;-0.50;88.10;;;;;;2106022;28;20452;-69
2021/04/06 03:34:15;;;;;;;7.28;2.65;;;-0.50;87.80;;;;;;2106596;28;20039;-68
2021/04/06 03:35:15;;;;;;;8.38;3.40;;;-0.50;87.70;;;;;;2107005;28;20028;-69
2021/04/06 03:36:29;;;;;;;6.80;2.83;;;-0.50;87.70;;;;;;2107131;28;20360;-69
2021/04/06 03:37:30;;;;;;;8.27;2.85;;;-0.50;87.30;;;;;;2107162;28;20036;-69
2021/04/06 03:38:31;;;;;;;5.55;2.70;;;-0.50;87.00;;;;;;2107054;28;20086;-68
2021/04/06 03:39:36;;;;;;;6.55;3.15;;;-0.50;86.90;;;;;;2106923;28;20032;-69
2021/04/06 03:40:39;;;;;;;7.18;2.88;;;-0.40;87.00;;;;;;2106408;28;20032;-68
2021/04/06 03:41:40;;;;;;;7.78;2.80;;;-0.40;86.90;;;;;;2106323;28;20032;-68
2021/04/06 03:42:40;;;;;;;6.60;2.80;;;-0.40;87.20;;;;;;2106718;28;20032;-69
2021/04/06 03:43:41;;;;;;;8.30;3.20;;;-0.40;87.30;;;;;;2106710;28;20089;-68
2021/04/06 03:44:42;;;;;;;7.80;2.83;;;-0.40;87.50;;;;;;2106929;28;20059;-70
2021/04/06 03:46:03;;;;;;;5.43;2.63;;;-0.40;87.10;;;;;;2106892;28;20073;-68
2021/04/06 03:47:04;;;;;;;7.50;2.90;;;-0.40;87.10;;;;;;2106909;28;20041;-68
2021/04/06 03:48:05;;;;;;;7.28;2.72;;;-0.40;87.30;;;;;;2106891;28;20055;-68
2021/04/06 03:49:18;;;;;;;10.32;3.00;;;-0.50;87.60;;;;;;2107082;28;20026;-70
2021/04/06 03:50:36;;;;;;;7.72;3.13;;;-0.50;88.00;;;;;;2107034;28;20020;-68
2021/04/06 03:51:37;;;;;;;6.03;3.20;;;-0.50;88.10;;;;;;2106855;28;20020;-68
2021/04/06 03:52:37;;;;;;;9.73;2.90;;;-0.50;87.80;;;;;;2106734;28;20024;-67
2021/04/06 03:53:40;;;;;;;6.32;2.60;;;-0.50;87.80;;;;;;2106636;28;20051;-68
2021/04/06 03:54:48;;;;;;;8.63;3.05;;;-0.50;87.80;;;;;;2106786;28;20016;-68
2021/04/06 03:56:07;;;;;;;8.32;3.13;;;-0.50;87.60;;;;;;2107045;28;20086;-69
2021/04/06 03:58:40;;;;;;;8.50;2.97;;;-0.50;87.90;;;;;;2106326;28;20105;-68
2021/04/06 03:59:40;;;;;;;6.78;3.55;;;-0.50;88.30;;;;;;2106957;28;20115;-69
2021/04/06 04:00:41;;;;;;;6.13;2.85;;;-0.60;87.90;;;;;;2106093;28;20031;-68
2021/04/06 04:01:42;;;;;;;10.02;3.20;;;-0.50;88.20;;;;;;2097717;28;20024;-68
2021/04/06 04:02:42;;;;;;;8.25;3.50;;;-0.50;88.20;;;;;;2105939;28;20040;-68
2021/04/06 04:03:43;;;;;;;7.68;3.00;;;-0.60;87.90;;;;;;2106562;28;20537;-68
2021/04/06 04:04:44;;;;;;;6.75;3.10;;;-0.50;88.20;;;;;;2106007;28;20016;-68
2021/04/06 04:05:44;;;;;;;7.72;3.22;;;-0.50;87.90;;;;;;2106049;28;20026;-69
2021/04/06 04:06:45;;;;;;;8.68;3.60;;;-0.50;88.20;;;;;;2106100;28;20926;-68
2021/04/06 04:07:46;;;;;;;8.07;3.53;;;-0.50;88.40;;;;;;2106178;28;20036;-68
2021/04/06 04:08:46;;;;;;;8.75;3.50;;;-0.50;88.70;;;;;;2106252;28;20053;-69
2021/04/06 04:09:47;;;;;;;10.45;4.00;;;-0.50;89.00;;;;;;2106716;28;20051;-69
2021/04/06 04:10:48;;;;;;;10.40;3.75;;;-0.50;89.00;;;;;;2106760;28;20035;-68
2021/04/06 04:11:48;;;;;;;9.45;3.70;;;-0.60;89.30;;;;;;2106671;28;20028;-68
2021/04/06 04:12:50;;;;;;;9.32;4.28;;;-0.50;89.20;;;;;;2105925;28;20101;-68
2021/04/06 04:13:50;;;;;;;7.53;3.85;;;-0.50;88.80;;;;;;2106362;28;20119;-68
2021/04/06 04:14:51;;;;;;;7.50;4.10;;;-0.40;88.90;;;;;;2107213;28;20020;-69
2021/04/06 04:15:52;;;;;;;7.80;3.88;;;-0.40;89.00;;;;;;2106970;28;20023;-69
2021/04/06 04:16:53;;;;;;;8.07;3.80;;;-0.40;88.80;;;;;;2097655;28;20024;-70
2021/04/06 04:17:54;;;;;;;9.23;4.45;;;-0.40;88.80;;;;;;2097765;28;20032;-69
2021/04/06 04:18:54;;;;;;;11.73;4.93;;;-0.40;88.70;;;;;;2106116;28;20052;-70
2021/04/06 04:19:55;;;;;;;10.23;4.20;;;-0.40;89.10;;;;;;2106661;28;20039;-69
2021/04/06 04:20:56;;;;;;;10.43;4.30;;;-0.30;89.30;;;;;;2106514;28;20047;-68
2021/04/06 04:21:57;;;;;;;7.55;4.07;;;-0.30;89.00;;;;;;2106032;28;20440;-69
2021/04/06 04:22:57;;;;;;;9.52;4.07;;;-0.30;89.00;;;;;;2105938;28;20040;-69
2021/04/06 04:23:58;;;;;;;7.72;4.63;;;-0.20;89.20;;;;;;2097507;28;20048;-68
2021/04/06 04:24:58;;;;;;;9.10;4.68;;;-0.20;89.40;;;;;;2106168;28;20028;-69
2021/04/06 04:25:59;;;;;;;9.73;4.53;;;-0.20;89.80;;;;;;2105937;28;20106;-70
2021/04/06 04:26:59;;;;;;;8.80;4.13;;;-0.20;89.90;;;;;;2097737;28;20563;-70
2021/04/06 04:28:00;;;;;;;10.77;4.63;;;-0.10;90.20;;;;;;2106012;28;20020;-69
2021/04/06 04:29:01;;;;;;;11.30;4.90;;;-0.10;90.40;;;;;;2106652;28;20020;-70
2021/04/06 04:30:02;;;;;;;8.27;4.65;;;-0.10;90.50;;;;;;2106666;28;20478;-70
2021/04/06 04:31:10;;;;;;;8.77;5.00;;;-0.10;90.80;;;;;;2106754;28;20038;-69
2021/04/06 04:32:13;;;;;;;9.82;4.93;;;-0.10;91.30;;;;;;2106669;28;20046;-69
2021/04/06 04:33:14;;;;;;;10.07;5.00;;;-0.10;91.80;;;;;;2105492;28;20495;-70
2021/04/06 04:34:15;;;;;;;13.05;5.45;;;-0.10;92.10;;;;;;2106041;28;20027;-68
2021/04/06 04:35:15;;;;;;;9.75;5.32;;;-0.10;92.40;;;;;;2106590;28;20618;-70
2021/04/06 04:36:16;;;;;;;11.52;5.60;;;-0.20;92.90;;;;;;2106458;28;20111;-68
2021/04/06 04:37:17;;;;;;;13.13;5.60;;;-0.20;93.40;;;;;;2106691;28;20191;-69
2021/04/06 04:38:17;;;;;;;8.85;5.22;;;-0.30;93.60;;;;;;2106526;28;20024;-70
2021/04/06 04:39:18;;;;;;;10.45;5.15;;;-0.30;94.00;;;;;;2106452;28;20036;-69
2021/04/06 04:40:19;;;;;;;11.95;5.50;;;-0.30;94.30;;;;;;2106559;28;20028;-68
2021/04/06 04:41:19;;;;;;;12.35;5.80;;;-0.20;94.50;;;;;;2106518;28;20066;-68
2021/04/06 04:42:20;;;;;;;12.07;5.40;;;-0.30;94.50;;;;;;2106533;28;20032;-68
2021/04/06 04:43:21;;;;;;;11.50;5.43;;;-0.30;94.50;;;;;;2106106;28;20120;-67
2021/04/06 04:44:21;;;;;;;10.88;5.57;;;-0.40;94.80;;;;;;2106580;28;20067;-70
2021/04/06 04:45:23;;;;;;;10.50;5.65;;;-0.40;94.90;;;;;;2105936;28;20024;-68
2021/04/06 04:46:24;;;;;;;9.27;5.57;;;-0.30;95.00;;;;;;2097500;28;20046;-68
2021/04/06 04:47:24;;;;;;;10.60;5.53;;;-0.30;95.20;;;;;;2105969;28;20107;-69
2021/04/06 04:48:25;;;;;;;10.20;5.05;;;-0.30;95.20;;;;;;2106315;28;20028;-69
2021/04/06 04:49:26;;;;;;;10.27;5.50;;;-0.20;95.20;;;;;;2105805;28;20032;-69
2021/04/06 04:50:26;;;;;;;16.10;7.97;;;-0.20;95.30;;;;;;2105892;28;20111;-70
2021/04/06 04:51:27;;;;;;;14.88;7.15;;;-0.20;95.40;;;;;;2105904;28;20025;-69
2021/04/06 04:52:28;;;;;;;16.23;6.93;;;-0.20;95.40;;;;;;2105901;28;20044;-69
2021/04/06 04:53:28;;;;;;;13.07;5.88;;;-0.20;95.10;;;;;;2106206;28;20024;-69
2021/04/06 04:54:29;;;;;;;9.50;5.82;;;-0.20;95.20;;;;;;2105699;28;20065;-70
2021/04/06 04:55:30;;;;;;;11.68;5.90;;;-0.20;95.20;;;;;;2105887;28;20032;-71
2021/04/06 04:56:31;;;;;;;9.60;5.57;;;-0.20;95.40;;;;;;2106607;28;20016;-69
2021/04/06 04:57:31;;;;;;;10.45;5.80;;;-0.20;95.40;;;;;;2106495;28;20576;-69
2021/04/06 04:58:32;;;;;;;10.98;5.70;;;-0.20;95.20;;;;;;2106483;28;20055;-68
2021/04/06 04:59:32;;;;;;;14.40;7.38;;;-0.20;95.10;;;;;;2106260;28;20032;-70
2021/04/06 05:00:33;;;;;;;18.48;8.93;;;-0.20;95.10;;;;;;2106665;28;20032;-69
2021/04/06 05:01:36;;;;;;;16.77;7.68;;;-0.20;95.30;;;;;;2105589;28;20035;-70
2021/04/06 05:02:38;;;;;;;18.90;8.73;;;-0.10;95.80;;;;;;2105754;28;20106;-68
2021/04/06 05:03:39;;;;;;;20.83;9.07;;;-0.10;95.50;;;;;;2105552;28;20036;-70
2021/04/06 05:04:39;;;;;;;11.73;6.45;;;-0.10;95.40;;;;;;2106337;28;20379;-70
2021/04/06 05:05:40;;;;;;;13.77;5.72;;;-0.10;95.10;;;;;;2106516;28;20608;-70
2021/04/06 05:06:40;;;;;;;11.70;5.70;;;-0.10;94.80;;;;;;2106574;28;20053;-70
2021/04/06 05:07:42;;;;;;;9.98;5.70;;;-0.10;94.90;;;;;;2106869;28;20016;-69
2021/04/06 05:08:43;;;;;;;14.75;5.80;;;-0.10;95.00;;;;;;2106009;28;20073;-70
2021/04/06 05:09:43;;;;;;;12.38;5.95;;;-0.10;94.80;;;;;;2106007;28;20020;-70
2021/04/06 05:10:44;;;;;;;10.15;5.70;;;-0.10;94.90;;;;;;2106003;28;20048;-69
2021/04/06 05:11:44;;;;;;;8.57;5.45;;;-0.10;95.00;;;;;;2106255;28;20105;-70
2021/04/06 05:12:47;;;;;;;11.98;5.53;;;-0.10;95.00;;;;;;2106815;28;20032;-69
2021/04/06 05:13:48;;;;;;;11.38;5.80;;;0.00;95.00;;;;;;2106271;28;20490;-70
2021/04/06 05:14:48;;;;;;;12.77;5.95;;;0.00;95.00;;;;;;2106982;28;20059;-70
2021/04/06 05:15:49;;;;;;;12.30;6.43;;;0.00;95.00;;;;;;2106335;28;20032;-69
2021/04/06 05:16:50;;;;;;;14.35;8.38;;;0.10;95.00;;;;;;2106417;28;20032;-69
2021/04/06 05:17:50;;;;;;;26.65;14.40;;;0.10;95.10;;;;;;2106480;28;20075;-69
2021/04/06 05:18:51;;;;;;;25.23;13.38;;;0.20;95.10;;;;;;2106353;28;20032;-69
2021/04/06 05:19:51;;;;;;;21.05;11.90;;;0.20;95.10;;;;;;2106375;28;20042;-69
2021/04/06 05:20:52;;;;;;;21.80;10.85;;;0.30;95.10;;;;;;2106541;28;20032;-69
2021/04/06 05:21:52;;;;;;;22.90;10.38;;;0.30;95.00;;;;;;2106618;28;20023;-69
2021/04/06 05:22:53;;;;;;;16.33;9.27;;;0.30;94.90;;;;;;2107083;28;20156;-70
2021/04/06 05:23:54;;;;;;;16.65;8.38;;;0.30;94.80;;;;;;2106900;28;20070;-68
2021/04/06 05:24:55;;;;;;;13.48;7.53;;;0.40;95.00;;;;;;2107301;28;20213;-69
2021/04/06 05:25:55;;;;;;;12.18;6.22;;;0.40;94.90;;;;;;2106985;28;20061;-69
2021/04/06 05:26:56;;;;;;;11.73;6.05;;;0.50;94.40;;;;;;2106838;28;20024;-69
2021/04/06 05:27:56;;;;;;;10.32;5.40;;;0.50;94.10;;;;;;2106557;28;20242;-70
2021/04/06 05:28:57;;;;;;;9.82;5.75;;;0.60;94.10;;;;;;2106409;28;20039;-70
2021/04/06 05:29:58;;;;;;;12.13;6.05;;;0.60;94.00;;;;;;2106899;28;20111;-69